Terminal Aerodrome Forecast
Issued by NWS Pocatello, ID

Home | Current Version | Previous Version | Text Only | Print | Product List | Glossary On
Versions: 1 2 3 4 5 6 7 8 9 10 11 12 13 14 15 16 17 18
875
FTUS45 KPIH 171720
TAFBYI
TAF
KBYI 171720Z 1718/1818 25010KT 6SM -SN BR SCT008 SCT025 OVC035
      TEMPO 1718/1719 OVC008
     FM171900 28020G30KT P6SM SCT025
     FM180000 29015G25KT P6SM SKC
     FM180400 24006KT P6SM SKC=

USA.gov is the U.S. government's official web portal to all federal, state and local government web resources and services.